الصفحة الرئيسية
METAR-TAF:

METAR-TAF

مطار :

مطار جناح الدولي

كراتشي, باكستان

دائرة عرض: 24-54N, خط طول: 067-08E, ارتفاع: 21 متر

مراقبة الطقس الحالي

تاريخ ووقت الإصدار 24 دقيقة قبل الساعة 02:25UTC
ريح 7 عقدة من الغرب
درجة الحرارة 25°درجة مئوية
الرطوبة 65%
ضغط 1013 hPa
الرؤية: 4000 متر
دخان

METAR: OPKC 230225Z 27007KT 4000 FU NSC 25/18 Q1013 NOSIG

زمن: 07:49 (02:49 UTC)

توقعات

تاريخ ووقت الإصدار 2ساعات و 19 دقيقة قبل الساعة 00:30UTC
التوقعات صالحة من23 الساعة 03 UTC إلى 23 الساعة 12 UTC
ريح 8 عقدة من الغرب/الجنوب الغربي تتزايد حتى 18 عقدة
الرؤية: 6000 متر
مؤقت
من 23 الساعة 03 UTC إلى 23 الساعة 07 UTC
ريح 3 عقدةمن اتجاهات متغيرة
الرؤية: 3000 متر
دخان

TAF: OPKC 230030Z 2303/2312 25008G18KT 6000 NSC TEMPO 2303/2307 VRB03KT 3000 FU NSC

أرصاد الطقس والتوقعات من أكثر من 4000 مطار (تقارير الطقس للمطار METAR والتنبؤ بالطقس بالمطارTAF).

المحطات المتاحة هي النقط الصفراء والحمراء على الخريطة.

حرك المؤشر فوق النقطة لمعرفة اسم المحطة.

ثم انقر لمعرفة أرصاد وتوقعات الطقس.

لتغيير الخارطة: اضغط على الأزرار الخضراء مع رمز الصليب الأسود للتكبير. على الزر الأخضر مع شرطة للتصغير، أو على الأسهم الخضراء للخرائط المجاورة.


METAR-TAF: